sensor_id;sensor_type;location;lat;lon;timestamp;P1;durP1;ratioP1;P2;durP2;ratioP2
76896;SDS011;65856;52.178;21.176;2023-01-15T00:00:05;18.50;;;8.70;;
76896;SDS011;65856;52.178;21.176;2023-01-15T00:02:36;20.10;;;8.40;;
76896;SDS011;65856;52.178;21.176;2023-01-15T00:05:06;17.70;;;8.00;;
76896;SDS011;65856;52.178;21.176;2023-01-15T00:07:35;17.50;;;7.60;;
76896;SDS011;65856;52.178;21.176;2023-01-15T00:10:04;16.00;;;7.80;;
76896;SDS011;65856;52.178;21.176;2023-01-15T00:12:33;22.10;;;8.60;;
76896;SDS011;65856;52.178;21.176;2023-01-15T00:15:01;12.70;;;7.10;;
76896;SDS011;65856;52.178;21.176;2023-01-15T00:17:29;15.50;;;7.50;;
76896;SDS011;65856;52.178;21.176;2023-01-15T00:19:57;21.30;;;7.90;;
76896;SDS011;65856;52.178;21.176;2023-01-15T00:22:26;16.40;;;7.50;;
76896;SDS011;65856;52.178;21.176;2023-01-15T00:24:55;17.00;;;8.10;;
76896;SDS011;65856;52.178;21.176;2023-01-15T00:27:41;16.60;;;8.00;;
76896;SDS011;65856;52.178;21.176;2023-01-15T00:30:13;12.60;;;6.60;;
76896;SDS011;65856;52.178;21.176;2023-01-15T00:32:43;15.70;;;7.40;;
76896;SDS011;65856;52.178;21.176;2023-01-15T00:35:13;18.20;;;8.30;;
76896;SDS011;65856;52.178;21.176;2023-01-15T00:37:43;14.30;;;8.10;;
76896;SDS011;65856;52.178;21.176;2023-01-15T00:40:12;14.30;;;7.60;;
76896;SDS011;65856;52.178;21.176;2023-01-15T00:42:41;14.00;;;7.20;;
76896;SDS011;65856;52.178;21.176;2023-01-15T00:45:10;13.00;;;6.30;;
76896;SDS011;65856;52.178;21.176;2023-01-15T00:47:39;12.60;;;5.80;;
76896;SDS011;65856;52.178;21.176;2023-01-15T00:50:12;14.50;;;8.00;;
76896;SDS011;65856;52.178;21.176;2023-01-15T00:52:41;13.90;;;7.00;;
76896;SDS011;65856;52.178;21.176;2023-01-15T00:55:09;13.50;;;6.50;;
76896;SDS011;65856;52.178;21.176;2023-01-15T00:57:37;14.00;;;6.70;;
76896;SDS011;65856;52.178;21.176;2023-01-15T01:00:07;12.90;;;6.10;;
76896;SDS011;65856;52.178;21.176;2023-01-15T01:02:38;15.00;;;6.40;;
76896;SDS011;65856;52.178;21.176;2023-01-15T01:05:07;11.30;;;6.00;;
76896;SDS011;65856;52.178;21.176;2023-01-15T01:07:36;13.40;;;6.70;;
76896;SDS011;65856;52.178;21.176;2023-01-15T01:10:05;12.50;;;6.50;;
76896;SDS011;65856;52.178;21.176;2023-01-15T01:12:35;12.60;;;6.30;;
76896;SDS011;65856;52.178;21.176;2023-01-15T01:15:04;13.00;;;6.40;;
76896;SDS011;65856;52.178;21.176;2023-01-15T01:17:36;10.60;;;5.50;;
76896;SDS011;65856;52.178;21.176;2023-01-15T01:20:06;15.10;;;7.00;;
76896;SDS011;65856;52.178;21.176;2023-01-15T01:22:36;12.60;;;6.00;;
76896;SDS011;65856;52.178;21.176;2023-01-15T01:25:06;11.90;;;6.00;;
76896;SDS011;65856;52.178;21.176;2023-01-15T01:27:35;11.90;;;6.00;;
76896;SDS011;65856;52.178;21.176;2023-01-15T01:30:05;10.60;;;5.40;;
76896;SDS011;65856;52.178;21.176;2023-01-15T01:32:35;13.60;;;5.80;;
76896;SDS011;65856;52.178;21.176;2023-01-15T01:35:03;12.00;;;5.10;;
76896;SDS011;65856;52.178;21.176;2023-01-15T01:37:32;13.10;;;6.50;;
76896;SDS011;65856;52.178;21.176;2023-01-15T01:40:00;10.80;;;5.40;;
76896;SDS011;65856;52.178;21.176;2023-01-15T01:42:29;9.60;;;5.10;;
76896;SDS011;65856;52.178;21.176;2023-01-15T01:47:46;12.60;;;5.50;;
76896;SDS011;65856;52.178;21.176;2023-01-15T01:50:15;9.40;;;4.50;;
76896;SDS011;65856;52.178;21.176;2023-01-15T01:52:47;10.70;;;5.30;;
76896;SDS011;65856;52.178;21.176;2023-01-15T01:55:20;11.20;;;5.60;;
76896;SDS011;65856;52.178;21.176;2023-01-15T01:57:53;12.60;;;5.80;;
76896;SDS011;65856;52.178;21.176;2023-01-15T02:00:25;12.30;;;6.00;;
76896;SDS011;65856;52.178;21.176;2023-01-15T02:02:55;11.10;;;5.30;;
76896;SDS011;65856;52.178;21.176;2023-01-15T02:05:28;11.70;;;5.30;;
76896;SDS011;65856;52.178;21.176;2023-01-15T02:07:58;12.20;;;6.00;;
76896;SDS011;65856;52.178;21.176;2023-01-15T02:10:27;12.50;;;5.40;;
76896;SDS011;65856;52.178;21.176;2023-01-15T02:13:00;15.60;;;6.60;;
76896;SDS011;65856;52.178;21.176;2023-01-15T02:15:36;12.80;;;5.70;;
76896;SDS011;65856;52.178;21.176;2023-01-15T02:18:11;12.20;;;5.90;;
76896;SDS011;65856;52.178;21.176;2023-01-15T02:20:49;12.00;;;5.60;;
76896;SDS011;65856;52.178;21.176;2023-01-15T02:23:52;12.30;;;5.30;;
76896;SDS011;65856;52.178;21.176;2023-01-15T02:26:46;12.60;;;5.70;;
76896;SDS011;65856;52.178;21.176;2023-01-15T02:29:28;12.20;;;5.60;;
76896;SDS011;65856;52.178;21.176;2023-01-15T02:32:05;15.50;;;6.40;;
76896;SDS011;65856;52.178;21.176;2023-01-15T02:34:37;11.90;;;5.80;;
76896;SDS011;65856;52.178;21.176;2023-01-15T02:37:16;13.70;;;6.60;;
76896;SDS011;65856;52.178;21.176;2023-01-15T02:39:49;13.00;;;5.80;;
76896;SDS011;65856;52.178;21.176;2023-01-15T02:42:20;12.40;;;5.60;;
76896;SDS011;65856;52.178;21.176;2023-01-15T02:44:52;12.60;;;5.80;;
76896;SDS011;65856;52.178;21.176;2023-01-15T02:47:26;10.50;;;5.10;;
76896;SDS011;65856;52.178;21.176;2023-01-15T02:50:00;13.40;;;5.60;;
76896;SDS011;65856;52.178;21.176;2023-01-15T02:52:34;14.10;;;6.00;;
76896;SDS011;65856;52.178;21.176;2023-01-15T02:55:09;11.80;;;6.10;;
76896;SDS011;65856;52.178;21.176;2023-01-15T02:57:42;13.00;;;5.90;;
76896;SDS011;65856;52.178;21.176;2023-01-15T03:00:17;13.20;;;6.10;;
76896;SDS011;65856;52.178;21.176;2023-01-15T03:02:50;12.60;;;6.10;;
76896;SDS011;65856;52.178;21.176;2023-01-15T03:05:28;11.70;;;6.10;;
76896;SDS011;65856;52.178;21.176;2023-01-15T03:08:04;11.90;;;5.30;;
76896;SDS011;65856;52.178;21.176;2023-01-15T03:10:38;12.10;;;5.40;;
76896;SDS011;65856;52.178;21.176;2023-01-15T03:13:16;11.90;;;5.80;;
76896;SDS011;65856;52.178;21.176;2023-01-15T03:15:57;12.40;;;5.90;;
76896;SDS011;65856;52.178;21.176;2023-01-15T03:18:51;11.30;;;5.30;;
76896;SDS011;65856;52.178;21.176;2023-01-15T03:21:27;11.10;;;5.70;;
76896;SDS011;65856;52.178;21.176;2023-01-15T03:24:01;10.60;;;5.90;;
76896;SDS011;65856;52.178;21.176;2023-01-15T03:26:33;10.00;;;5.40;;
76896;SDS011;65856;52.178;21.176;2023-01-15T03:29:03;11.90;;;5.00;;
76896;SDS011;65856;52.178;21.176;2023-01-15T03:31:34;11.90;;;5.10;;
76896;SDS011;65856;52.178;21.176;2023-01-15T03:34:03;14.20;;;6.40;;
76896;SDS011;65856;52.178;21.176;2023-01-15T03:36:33;11.80;;;5.10;;
76896;SDS011;65856;52.178;21.176;2023-01-15T03:39:01;11.30;;;5.10;;
76896;SDS011;65856;52.178;21.176;2023-01-15T03:41:37;12.80;;;5.60;;
76896;SDS011;65856;52.178;21.176;2023-01-15T03:44:25;12.00;;;5.20;;
76896;SDS011;65856;52.178;21.176;2023-01-15T03:47:05;14.20;;;6.20;;
76896;SDS011;65856;52.178;21.176;2023-01-15T03:49:50;11.40;;;5.80;;
76896;SDS011;65856;52.178;21.176;2023-01-15T03:52:33;8.60;;;4.10;;
76896;SDS011;65856;52.178;21.176;2023-01-15T03:55:13;9.80;;;4.90;;
76896;SDS011;65856;52.178;21.176;2023-01-15T03:57:48;8.30;;;4.60;;
76896;SDS011;65856;52.178;21.176;2023-01-15T04:00:25;10.60;;;5.10;;
76896;SDS011;65856;52.178;21.176;2023-01-15T04:02:57;11.60;;;5.60;;
76896;SDS011;65856;52.178;21.176;2023-01-15T04:05:30;7.60;;;3.90;;
76896;SDS011;65856;52.178;21.176;2023-01-15T04:08:00;10.10;;;4.40;;
76896;SDS011;65856;52.178;21.176;2023-01-15T04:10:30;7.90;;;4.30;;
76896;SDS011;65856;52.178;21.176;2023-01-15T04:12:59;8.80;;;4.00;;
76896;SDS011;65856;52.178;21.176;2023-01-15T04:15:27;9.30;;;4.50;;
76896;SDS011;65856;52.178;21.176;2023-01-15T04:17:55;8.20;;;4.10;;
76896;SDS011;65856;52.178;21.176;2023-01-15T04:20:23;7.00;;;3.70;;
76896;SDS011;65856;52.178;21.176;2023-01-15T04:22:51;8.50;;;4.00;;
76896;SDS011;65856;52.178;21.176;2023-01-15T04:25:19;8.40;;;4.50;;
76896;SDS011;65856;52.178;21.176;2023-01-15T04:27:47;9.20;;;4.30;;
76896;SDS011;65856;52.178;21.176;2023-01-15T04:30:17;6.80;;;3.30;;
76896;SDS011;65856;52.178;21.176;2023-01-15T04:32:47;7.30;;;3.50;;
76896;SDS011;65856;52.178;21.176;2023-01-15T04:35:16;7.80;;;3.50;;
76896;SDS011;65856;52.178;21.176;2023-01-15T04:37:45;7.80;;;4.00;;
76896;SDS011;65856;52.178;21.176;2023-01-15T04:40:14;6.50;;;3.50;;
76896;SDS011;65856;52.178;21.176;2023-01-15T04:42:57;6.90;;;3.70;;
76896;SDS011;65856;52.178;21.176;2023-01-15T04:45:44;7.90;;;4.00;;
76896;SDS011;65856;52.178;21.176;2023-01-15T04:48:12;6.40;;;3.60;;
76896;SDS011;65856;52.178;21.176;2023-01-15T04:50:40;7.90;;;3.80;;
76896;SDS011;65856;52.178;21.176;2023-01-15T04:53:09;7.90;;;3.60;;
76896;SDS011;65856;52.178;21.176;2023-01-15T04:55:37;7.20;;;3.60;;
76896;SDS011;65856;52.178;21.176;2023-01-15T04:58:06;7.80;;;3.80;;
76896;SDS011;65856;52.178;21.176;2023-01-15T05:00:34;7.40;;;3.80;;
76896;SDS011;65856;52.178;21.176;2023-01-15T05:03:02;6.80;;;3.30;;
76896;SDS011;65856;52.178;21.176;2023-01-15T05:05:30;6.70;;;3.50;;
76896;SDS011;65856;52.178;21.176;2023-01-15T05:07:59;7.40;;;3.50;;
76896;SDS011;65856;52.178;21.176;2023-01-15T05:10:27;7.00;;;3.90;;
76896;SDS011;65856;52.178;21.176;2023-01-15T05:12:55;6.60;;;3.30;;
76896;SDS011;65856;52.178;21.176;2023-01-15T05:15:23;6.30;;;3.30;;
76896;SDS011;65856;52.178;21.176;2023-01-15T05:17:51;6.10;;;3.50;;
76896;SDS011;65856;52.178;21.176;2023-01-15T05:20:19;7.00;;;3.50;;
76896;SDS011;65856;52.178;21.176;2023-01-15T05:22:47;5.80;;;3.00;;
76896;SDS011;65856;52.178;21.176;2023-01-15T05:25:16;4.90;;;2.90;;
76896;SDS011;65856;52.178;21.176;2023-01-15T05:27:44;5.70;;;3.00;;
76896;SDS011;65856;52.178;21.176;2023-01-15T05:30:13;5.80;;;3.00;;
76896;SDS011;65856;52.178;21.176;2023-01-15T05:32:41;4.60;;;2.70;;
76896;SDS011;65856;52.178;21.176;2023-01-15T05:35:10;6.30;;;3.20;;
76896;SDS011;65856;52.178;21.176;2023-01-15T05:37:38;6.80;;;3.30;;
76896;SDS011;65856;52.178;21.176;2023-01-15T05:40:09;5.40;;;2.70;;
76896;SDS011;65856;52.178;21.176;2023-01-15T05:42:38;7.50;;;3.30;;
76896;SDS011;65856;52.178;21.176;2023-01-15T05:45:08;6.40;;;3.30;;
76896;SDS011;65856;52.178;21.176;2023-01-15T05:47:36;4.70;;;2.70;;
76896;SDS011;65856;52.178;21.176;2023-01-15T05:50:05;3.50;;;2.00;;
76896;SDS011;65856;52.178;21.176;2023-01-15T05:52:35;4.60;;;2.80;;
76896;SDS011;65856;52.178;21.176;2023-01-15T05:55:04;4.80;;;2.60;;
76896;SDS011;65856;52.178;21.176;2023-01-15T05:57:33;4.70;;;2.60;;
76896;SDS011;65856;52.178;21.176;2023-01-15T06:00:01;6.10;;;2.90;;
76896;SDS011;65856;52.178;21.176;2023-01-15T06:02:30;4.20;;;2.40;;
76896;SDS011;65856;52.178;21.176;2023-01-15T06:04:59;4.30;;;2.50;;
76896;SDS011;65856;52.178;21.176;2023-01-15T06:07:27;5.00;;;2.50;;
76896;SDS011;65856;52.178;21.176;2023-01-15T06:09:55;4.90;;;2.70;;
76896;SDS011;65856;52.178;21.176;2023-01-15T06:12:23;4.00;;;2.40;;
76896;SDS011;65856;52.178;21.176;2023-01-15T06:14:51;4.70;;;2.50;;
76896;SDS011;65856;52.178;21.176;2023-01-15T06:17:19;4.90;;;2.30;;
76896;SDS011;65856;52.178;21.176;2023-01-15T06:19:48;7.10;;;2.70;;
76896;SDS011;65856;52.178;21.176;2023-01-15T06:22:16;4.00;;;2.20;;
76896;SDS011;65856;52.178;21.176;2023-01-15T06:24:44;4.00;;;2.50;;
76896;SDS011;65856;52.178;21.176;2023-01-15T06:27:12;4.80;;;2.40;;
76896;SDS011;65856;52.178;21.176;2023-01-15T06:29:40;5.20;;;2.60;;
76896;SDS011;65856;52.178;21.176;2023-01-15T06:32:08;4.30;;;1.90;;
76896;SDS011;65856;52.178;21.176;2023-01-15T06:34:36;4.30;;;2.20;;
76896;SDS011;65856;52.178;21.176;2023-01-15T06:37:04;6.30;;;3.30;;
76896;SDS011;65856;52.178;21.176;2023-01-15T06:39:32;5.90;;;2.20;;
76896;SDS011;65856;52.178;21.176;2023-01-15T06:42:01;5.40;;;2.40;;
76896;SDS011;65856;52.178;21.176;2023-01-15T06:44:47;5.40;;;2.30;;
76896;SDS011;65856;52.178;21.176;2023-01-15T06:47:33;4.60;;;2.40;;
76896;SDS011;65856;52.178;21.176;2023-01-15T06:50:01;4.00;;;2.20;;
76896;SDS011;65856;52.178;21.176;2023-01-15T06:52:29;4.10;;;2.50;;
76896;SDS011;65856;52.178;21.176;2023-01-15T06:54:58;4.00;;;2.20;;
76896;SDS011;65856;52.178;21.176;2023-01-15T06:57:26;4.90;;;2.30;;
76896;SDS011;65856;52.178;21.176;2023-01-15T06:59:54;5.50;;;2.40;;
76896;SDS011;65856;52.178;21.176;2023-01-15T07:02:22;4.10;;;2.20;;
76896;SDS011;65856;52.178;21.176;2023-01-15T07:04:51;4.80;;;2.20;;
76896;SDS011;65856;52.178;21.176;2023-01-15T07:07:20;3.70;;;2.10;;
76896;SDS011;65856;52.178;21.176;2023-01-15T07:09:49;5.70;;;3.20;;
76896;SDS011;65856;52.178;21.176;2023-01-15T07:12:17;4.70;;;2.40;;
76896;SDS011;65856;52.178;21.176;2023-01-15T07:14:45;4.50;;;2.00;;
76896;SDS011;65856;52.178;21.176;2023-01-15T07:17:13;4.30;;;2.30;;
76896;SDS011;65856;52.178;21.176;2023-01-15T07:19:42;5.90;;;2.30;;
76896;SDS011;65856;52.178;21.176;2023-01-15T07:22:10;4.60;;;2.20;;
76896;SDS011;65856;52.178;21.176;2023-01-15T07:24:39;4.10;;;2.00;;
76896;SDS011;65856;52.178;21.176;2023-01-15T07:27:07;6.00;;;2.20;;
76896;SDS011;65856;52.178;21.176;2023-01-15T07:29:35;5.00;;;2.30;;
76896;SDS011;65856;52.178;21.176;2023-01-15T07:32:04;4.20;;;2.50;;
76896;SDS011;65856;52.178;21.176;2023-01-15T07:34:32;6.60;;;2.40;;
76896;SDS011;65856;52.178;21.176;2023-01-15T07:37:01;3.90;;;2.30;;
76896;SDS011;65856;52.178;21.176;2023-01-15T07:39:29;4.80;;;2.40;;
76896;SDS011;65856;52.178;21.176;2023-01-15T07:41:57;4.70;;;2.40;;
76896;SDS011;65856;52.178;21.176;2023-01-15T07:44:55;4.60;;;2.50;;
76896;SDS011;65856;52.178;21.176;2023-01-15T07:47:41;3.70;;;2.20;;
76896;SDS011;65856;52.178;21.176;2023-01-15T07:50:28;3.60;;;2.20;;
76896;SDS011;65856;52.178;21.176;2023-01-15T07:52:56;4.00;;;2.20;;
76896;SDS011;65856;52.178;21.176;2023-01-15T07:55:24;4.90;;;2.50;;
76896;SDS011;65856;52.178;21.176;2023-01-15T07:57:52;4.90;;;2.40;;
76896;SDS011;65856;52.178;21.176;2023-01-15T08:00:22;3.80;;;2.00;;
76896;SDS011;65856;52.178;21.176;2023-01-15T08:02:51;4.80;;;2.40;;
76896;SDS011;65856;52.178;21.176;2023-01-15T08:05:19;4.80;;;2.10;;
76896;SDS011;65856;52.178;21.176;2023-01-15T08:07:48;3.80;;;2.20;;
76896;SDS011;65856;52.178;21.176;2023-01-15T08:10:16;4.70;;;2.00;;
76896;SDS011;65856;52.178;21.176;2023-01-15T08:12:47;4.70;;;2.40;;
76896;SDS011;65856;52.178;21.176;2023-01-15T08:15:38;4.80;;;2.20;;
76896;SDS011;65856;52.178;21.176;2023-01-15T08:18:09;5.10;;;2.40;;
76896;SDS011;65856;52.178;21.176;2023-01-15T08:20:37;5.80;;;2.50;;
76896;SDS011;65856;52.178;21.176;2023-01-15T08:23:05;4.40;;;2.30;;
76896;SDS011;65856;52.178;21.176;2023-01-15T08:25:33;4.70;;;2.80;;
76896;SDS011;65856;52.178;21.176;2023-01-15T08:28:02;4.60;;;2.10;;
76896;SDS011;65856;52.178;21.176;2023-01-15T08:30:30;3.90;;;2.50;;
76896;SDS011;65856;52.178;21.176;2023-01-15T08:33:01;4.80;;;2.10;;
76896;SDS011;65856;52.178;21.176;2023-01-15T08:35:29;5.20;;;2.70;;
76896;SDS011;65856;52.178;21.176;2023-01-15T08:38:03;4.70;;;2.10;;
76896;SDS011;65856;52.178;21.176;2023-01-15T08:40:32;5.30;;;2.10;;
76896;SDS011;65856;52.178;21.176;2023-01-15T08:43:01;4.30;;;2.20;;
76896;SDS011;65856;52.178;21.176;2023-01-15T08:45:30;4.90;;;2.30;;
76896;SDS011;65856;52.178;21.176;2023-01-15T08:47:58;5.30;;;2.50;;
76896;SDS011;65856;52.178;21.176;2023-01-15T08:50:26;5.00;;;2.10;;
76896;SDS011;65856;52.178;21.176;2023-01-15T08:52:54;4.70;;;2.10;;
76896;SDS011;65856;52.178;21.176;2023-01-15T08:55:22;4.90;;;2.30;;
76896;SDS011;65856;52.178;21.176;2023-01-15T08:57:50;4.50;;;2.20;;
76896;SDS011;65856;52.178;21.176;2023-01-15T09:00:19;4.30;;;2.10;;
76896;SDS011;65856;52.178;21.176;2023-01-15T09:02:50;5.50;;;2.40;;
76896;SDS011;65856;52.178;21.176;2023-01-15T09:05:18;5.00;;;2.70;;
76896;SDS011;65856;52.178;21.176;2023-01-15T09:07:46;5.80;;;2.50;;
76896;SDS011;65856;52.178;21.176;2023-01-15T09:10:15;4.60;;;2.00;;
76896;SDS011;65856;52.178;21.176;2023-01-15T09:12:44;5.60;;;2.20;;
76896;SDS011;65856;52.178;21.176;2023-01-15T09:15:12;4.60;;;2.40;;
76896;SDS011;65856;52.178;21.176;2023-01-15T09:17:41;4.00;;;2.10;;
76896;SDS011;65856;52.178;21.176;2023-01-15T09:20:12;4.70;;;2.30;;
76896;SDS011;65856;52.178;21.176;2023-01-15T09:22:40;4.50;;;2.40;;
76896;SDS011;65856;52.178;21.176;2023-01-15T09:25:09;4.60;;;1.90;;
76896;SDS011;65856;52.178;21.176;2023-01-15T09:27:37;6.40;;;2.70;;
76896;SDS011;65856;52.178;21.176;2023-01-15T09:30:08;4.90;;;2.40;;
76896;SDS011;65856;52.178;21.176;2023-01-15T09:32:41;4.00;;;2.40;;
76896;SDS011;65856;52.178;21.176;2023-01-15T09:35:10;3.90;;;2.10;;
76896;SDS011;65856;52.178;21.176;2023-01-15T09:37:38;5.50;;;2.50;;
76896;SDS011;65856;52.178;21.176;2023-01-15T09:40:10;4.80;;;2.60;;
76896;SDS011;65856;52.178;21.176;2023-01-15T09:42:54;5.20;;;2.90;;
76896;SDS011;65856;52.178;21.176;2023-01-15T09:45:30;5.40;;;2.60;;
76896;SDS011;65856;52.178;21.176;2023-01-15T09:48:17;7.20;;;2.90;;
76896;SDS011;65856;52.178;21.176;2023-01-15T09:51:11;5.00;;;2.50;;
76896;SDS011;65856;52.178;21.176;2023-01-15T09:54:00;6.90;;;2.70;;
76896;SDS011;65856;52.178;21.176;2023-01-15T09:59:18;4.80;;;1.90;;
76896;SDS011;65856;52.178;21.176;2023-01-15T10:01:52;5.80;;;2.90;;
76896;SDS011;65856;52.178;21.176;2023-01-15T10:04:30;5.90;;;2.80;;
76896;SDS011;65856;52.178;21.176;2023-01-15T10:07:14;7.00;;;3.60;;
76896;SDS011;65856;52.178;21.176;2023-01-15T10:09:47;8.20;;;3.00;;
76896;SDS011;65856;52.178;21.176;2023-01-15T10:12:27;5.60;;;2.70;;
76896;SDS011;65856;52.178;21.176;2023-01-15T10:15:26;7.30;;;2.80;;
76896;SDS011;65856;52.178;21.176;2023-01-15T10:17:58;6.80;;;2.80;;
76896;SDS011;65856;52.178;21.176;2023-01-15T10:20:42;6.00;;;2.80;;
76896;SDS011;65856;52.178;21.176;2023-01-15T10:23:43;6.60;;;3.10;;
76896;SDS011;65856;52.178;21.176;2023-01-15T10:29:00;6.00;;;2.50;;
76896;SDS011;65856;52.178;21.176;2023-01-15T10:31:52;6.80;;;2.70;;
76896;SDS011;65856;52.178;21.176;2023-01-15T10:37:42;6.00;;;3.10;;
76896;SDS011;65856;52.178;21.176;2023-01-15T10:43:16;9.00;;;3.70;;
76896;SDS011;65856;52.178;21.176;2023-01-15T10:45:51;7.10;;;3.50;;
76896;SDS011;65856;52.178;21.176;2023-01-15T10:48:28;9.50;;;4.30;;
76896;SDS011;65856;52.178;21.176;2023-01-15T10:51:14;5.60;;;3.20;;
76896;SDS011;65856;52.178;21.176;2023-01-15T10:53:48;8.30;;;3.90;;
76896;SDS011;65856;52.178;21.176;2023-01-15T10:56:30;10.30;;;5.00;;
76896;SDS011;65856;52.178;21.176;2023-01-15T10:59:10;6.60;;;3.50;;
76896;SDS011;65856;52.178;21.176;2023-01-15T11:01:41;6.30;;;3.30;;
76896;SDS011;65856;52.178;21.176;2023-01-15T11:04:10;7.50;;;3.30;;
76896;SDS011;65856;52.178;21.176;2023-01-15T11:06:39;8.50;;;4.10;;
76896;SDS011;65856;52.178;21.176;2023-01-15T11:09:16;8.20;;;3.60;;
76896;SDS011;65856;52.178;21.176;2023-01-15T11:11:49;10.30;;;3.80;;
76896;SDS011;65856;52.178;21.176;2023-01-15T11:14:39;6.90;;;3.80;;
76896;SDS011;65856;52.178;21.176;2023-01-15T11:17:29;8.20;;;4.10;;
76896;SDS011;65856;52.178;21.176;2023-01-15T11:20:24;7.20;;;3.40;;
76896;SDS011;65856;52.178;21.176;2023-01-15T11:22:56;10.20;;;4.30;;
76896;SDS011;65856;52.178;21.176;2023-01-15T11:25:32;10.50;;;4.50;;
76896;SDS011;65856;52.178;21.176;2023-01-15T11:28:03;7.70;;;3.40;;
76896;SDS011;65856;52.178;21.176;2023-01-15T11:30:35;7.90;;;3.10;;
76896;SDS011;65856;52.178;21.176;2023-01-15T11:38:18;9.40;;;3.60;;
76896;SDS011;65856;52.178;21.176;2023-01-15T11:40:53;7.10;;;3.50;;
76896;SDS011;65856;52.178;21.176;2023-01-15T11:43:25;7.80;;;3.60;;
76896;SDS011;65856;52.178;21.176;2023-01-15T11:46:27;10.40;;;3.90;;
76896;SDS011;65856;52.178;21.176;2023-01-15T11:49:17;9.60;;;4.20;;
76896;SDS011;65856;52.178;21.176;2023-01-15T11:52:07;10.60;;;4.70;;
76896;SDS011;65856;52.178;21.176;2023-01-15T11:54:40;11.00;;;5.20;;
76896;SDS011;65856;52.178;21.176;2023-01-15T11:57:11;8.00;;;3.80;;
76896;SDS011;65856;52.178;21.176;2023-01-15T11:59:51;8.00;;;4.30;;
76896;SDS011;65856;52.178;21.176;2023-01-15T12:02:28;8.40;;;3.90;;
76896;SDS011;65856;52.178;21.176;2023-01-15T12:05:03;7.50;;;4.00;;
76896;SDS011;65856;52.178;21.176;2023-01-15T12:07:40;8.10;;;4.30;;
76896;SDS011;65856;52.178;21.176;2023-01-15T12:10:17;10.90;;;4.80;;
76896;SDS011;65856;52.178;21.176;2023-01-15T12:13:16;8.80;;;4.80;;
76896;SDS011;65856;52.178;21.176;2023-01-15T12:15:59;8.30;;;4.00;;
76896;SDS011;65856;52.178;21.176;2023-01-15T12:18:54;8.90;;;4.30;;
76896;SDS011;65856;52.178;21.176;2023-01-15T12:21:41;9.00;;;4.60;;
76896;SDS011;65856;52.178;21.176;2023-01-15T12:24:34;9.90;;;4.60;;
76896;SDS011;65856;52.178;21.176;2023-01-15T12:27:36;8.00;;;4.10;;
76896;SDS011;65856;52.178;21.176;2023-01-15T12:30:22;9.90;;;4.30;;
76896;SDS011;65856;52.178;21.176;2023-01-15T12:33:03;10.60;;;4.60;;
76896;SDS011;65856;52.178;21.176;2023-01-15T12:35:43;10.80;;;4.50;;
76896;SDS011;65856;52.178;21.176;2023-01-15T12:38:21;11.60;;;4.90;;
76896;SDS011;65856;52.178;21.176;2023-01-15T12:41:00;9.30;;;4.60;;
76896;SDS011;65856;52.178;21.176;2023-01-15T12:43:34;9.40;;;4.90;;
76896;SDS011;65856;52.178;21.176;2023-01-15T12:46:25;9.80;;;5.10;;
76896;SDS011;65856;52.178;21.176;2023-01-15T12:49:01;11.80;;;5.00;;
76896;SDS011;65856;52.178;21.176;2023-01-15T12:51:44;13.30;;;5.40;;
76896;SDS011;65856;52.178;21.176;2023-01-15T12:54:20;12.20;;;5.50;;
76896;SDS011;65856;52.178;21.176;2023-01-15T12:56:58;9.30;;;4.70;;
76896;SDS011;65856;52.178;21.176;2023-01-15T12:59:34;9.40;;;5.40;;
76896;SDS011;65856;52.178;21.176;2023-01-15T13:02:13;10.40;;;5.10;;
76896;SDS011;65856;52.178;21.176;2023-01-15T13:04:50;10.30;;;4.70;;
76896;SDS011;65856;52.178;21.176;2023-01-15T13:07:26;9.90;;;5.40;;
76896;SDS011;65856;52.178;21.176;2023-01-15T13:10:03;9.80;;;5.00;;
76896;SDS011;65856;52.178;21.176;2023-01-15T13:12:36;11.50;;;5.60;;
76896;SDS011;65856;52.178;21.176;2023-01-15T13:15:10;9.60;;;5.00;;
76896;SDS011;65856;52.178;21.176;2023-01-15T13:17:54;9.60;;;4.70;;
76896;SDS011;65856;52.178;21.176;2023-01-15T13:20:39;10.30;;;5.20;;
76896;SDS011;65856;52.178;21.176;2023-01-15T13:23:26;11.40;;;5.50;;
76896;SDS011;65856;52.178;21.176;2023-01-15T13:26:19;9.20;;;5.00;;
76896;SDS011;65856;52.178;21.176;2023-01-15T13:29:05;10.20;;;5.30;;
76896;SDS011;65856;52.178;21.176;2023-01-15T13:31:49;9.80;;;5.40;;
76896;SDS011;65856;52.178;21.176;2023-01-15T13:34:30;9.30;;;4.70;;
76896;SDS011;65856;52.178;21.176;2023-01-15T13:37:11;9.30;;;4.80;;
76896;SDS011;65856;52.178;21.176;2023-01-15T13:39:47;11.50;;;5.10;;
76896;SDS011;65856;52.178;21.176;2023-01-15T13:42:20;12.60;;;6.10;;
76896;SDS011;65856;52.178;21.176;2023-01-15T13:47:36;12.30;;;5.60;;
76896;SDS011;65856;52.178;21.176;2023-01-15T13:50:15;13.30;;;5.70;;
76896;SDS011;65856;52.178;21.176;2023-01-15T13:52:45;14.10;;;6.20;;
76896;SDS011;65856;52.178;21.176;2023-01-15T13:55:27;11.20;;;5.90;;
76896;SDS011;65856;52.178;21.176;2023-01-15T13:57:58;12.70;;;5.80;;
76896;SDS011;65856;52.178;21.176;2023-01-15T14:00:30;14.30;;;6.30;;
76896;SDS011;65856;52.178;21.176;2023-01-15T14:03:00;15.00;;;5.70;;
76896;SDS011;65856;52.178;21.176;2023-01-15T14:05:31;10.90;;;5.10;;
76896;SDS011;65856;52.178;21.176;2023-01-15T14:08:02;16.20;;;6.20;;
76896;SDS011;65856;52.178;21.176;2023-01-15T14:13:45;12.80;;;6.10;;
76896;SDS011;65856;52.178;21.176;2023-01-15T14:16:38;13.40;;;5.80;;
76896;SDS011;65856;52.178;21.176;2023-01-15T14:19:39;12.90;;;6.30;;
76896;SDS011;65856;52.178;21.176;2023-01-15T14:22:34;12.60;;;5.60;;
76896;SDS011;65856;52.178;21.176;2023-01-15T14:25:34;15.10;;;7.80;;
76896;SDS011;65856;52.178;21.176;2023-01-15T14:28:21;12.80;;;7.20;;
76896;SDS011;65856;52.178;21.176;2023-01-15T14:31:15;13.60;;;6.70;;
76896;SDS011;65856;52.178;21.176;2023-01-15T14:34:18;18.00;;;7.50;;
76896;SDS011;65856;52.178;21.176;2023-01-15T14:36:53;13.20;;;6.30;;
76896;SDS011;65856;52.178;21.176;2023-01-15T14:39:29;12.50;;;6.40;;
76896;SDS011;65856;52.178;21.176;2023-01-15T14:42:05;11.90;;;6.40;;
76896;SDS011;65856;52.178;21.176;2023-01-15T14:44:58;12.90;;;6.10;;
76896;SDS011;65856;52.178;21.176;2023-01-15T14:47:33;11.40;;;5.80;;
76896;SDS011;65856;52.178;21.176;2023-01-15T14:50:36;13.90;;;6.50;;
76896;SDS011;65856;52.178;21.176;2023-01-15T14:53:16;12.90;;;6.00;;
76896;SDS011;65856;52.178;21.176;2023-01-15T14:55:56;12.10;;;5.80;;
76896;SDS011;65856;52.178;21.176;2023-01-15T14:58:36;11.50;;;5.90;;
76896;SDS011;65856;52.178;21.176;2023-01-15T15:01:17;10.80;;;6.30;;
76896;SDS011;65856;52.178;21.176;2023-01-15T15:03:55;14.30;;;6.30;;
76896;SDS011;65856;52.178;21.176;2023-01-15T15:06:26;15.60;;;6.70;;
76896;SDS011;65856;52.178;21.176;2023-01-15T15:08:59;15.30;;;7.00;;
76896;SDS011;65856;52.178;21.176;2023-01-15T15:11:35;15.80;;;7.30;;
76896;SDS011;65856;52.178;21.176;2023-01-15T15:14:28;20.90;;;8.30;;
76896;SDS011;65856;52.178;21.176;2023-01-15T15:16:59;20.90;;;8.60;;
76896;SDS011;65856;52.178;21.176;2023-01-15T15:19:36;17.80;;;8.00;;
76896;SDS011;65856;52.178;21.176;2023-01-15T15:22:12;16.80;;;8.10;;
76896;SDS011;65856;52.178;21.176;2023-01-15T15:24:45;14.50;;;7.60;;
76896;SDS011;65856;52.178;21.176;2023-01-15T15:27:17;13.80;;;6.80;;
76896;SDS011;65856;52.178;21.176;2023-01-15T15:29:47;16.50;;;7.40;;
76896;SDS011;65856;52.178;21.176;2023-01-15T15:32:18;16.30;;;7.60;;
76896;SDS011;65856;52.178;21.176;2023-01-15T15:34:50;18.00;;;7.80;;